Time;durP1;ratioP1;P1;durP2;ratioP2;P2;SDS_P1;SDS_P2;PMS_P1;PMS_P2;Temp;Humidity;BMP_temperature;BMP_pressure;BME280_temperature;BME280_humidity;BME280_pressure;Samples;Min_cycle;Max_cycle;Signal;HPM_P1;HPM_P2
2022/04/06 00:02:05;;;;;;;3.03;2.47;;;;;;;21.06;36.27;100138.38;5069526;28;20044;-69
2022/04/06 00:04:31;;;;;;;3.85;1.92;;;;;;;21.07;36.41;100139.19;5035252;28;20051;-68
2022/04/06 00:06:56;;;;;;;5.47;2.33;;;;;;;21.05;36.43;100131.47;5068517;28;20798;-68
2022/04/06 00:09:22;;;;;;;3.05;2.58;;;;;;;21.04;36.34;100127.19;5046982;28;20090;-68
2022/04/06 00:11:49;;;;;;;3.60;2.10;;;;;;;21.02;36.34;100126.59;5071951;28;20094;-68
2022/04/06 00:14:15;;;;;;;2.60;1.83;;;;;;;20.89;36.40;100099.28;5031571;28;20049;-68
2022/04/06 00:16:40;;;;;;;3.95;1.90;;;;;;;20.98;36.37;100108.66;5069152;28;20520;-68
2022/04/06 00:19:06;;;;;;;4.18;2.28;;;;;;;21.04;36.41;100115.78;5025300;28;20048;-68
2022/04/06 00:21:31;;;;;;;4.20;2.13;;;;;;;21.02;36.58;100100.13;5059145;28;20038;-68
2022/04/06 00:23:58;;;;;;;3.30;2.40;;;;;;;20.98;36.47;100106.00;5071432;28;20410;-69
2022/04/06 00:26:25;;;;;;;3.25;2.00;;;;;;;20.99;36.50;100108.44;5045393;28;20036;-68
2022/04/06 00:28:51;;;;;;;3.72;1.98;;;;;;;20.99;36.38;100104.97;5067181;28;20056;-68
2022/04/06 00:31:16;;;;;;;3.85;2.10;;;;;;;21.01;36.23;100101.13;5045761;28;20036;-68
2022/04/06 00:33:42;;;;;;;2.92;2.13;;;;;;;20.99;36.42;100104.97;5052957;28;20041;-68
2022/04/06 00:36:07;;;;;;;4.03;2.25;;;;;;;20.95;36.45;100099.28;5032393;28;20047;-68
2022/04/06 00:38:33;;;;;;;4.35;2.22;;;;;;;20.95;36.31;100094.00;5071278;28;20044;-69
2022/04/06 00:40:58;;;;;;;3.58;2.20;;;;;;;20.93;36.48;100090.75;5043783;28;20898;-68
2022/04/06 00:43:24;;;;;;;6.10;2.55;;;;;;;20.96;36.53;100092.16;5072605;28;20493;-68
2022/04/06 00:45:50;;;;;;;3.60;2.35;;;;;;;20.93;36.35;100092.56;5024111;28;20081;-68
2022/04/06 00:48:15;;;;;;;4.65;2.20;;;;;;;20.93;36.55;100096.03;5068587;28;20517;-68
2022/04/06 00:50:44;;;;;;;3.05;2.13;;;;;;;20.86;36.40;100079.34;5043185;28;20361;-68
2022/04/06 00:53:12;;;;;;;4.07;2.78;;;;;;;20.85;36.46;100082.22;5057657;28;20051;-68
2022/04/06 00:55:39;;;;;;;6.63;2.20;;;;;;;20.89;36.43;100078.94;5051576;28;20032;-68
2022/04/06 00:58:05;;;;;;;6.75;2.55;;;;;;;20.84;36.52;100070.81;5042225;28;20044;-68
2022/04/06 01:00:32;;;;;;;4.55;2.35;;;;;;;20.83;36.66;100069.19;5064449;28;20039;-68
2022/04/06 01:02:58;;;;;;;5.93;2.53;;;;;;;20.74;36.49;100057.16;5045481;28;20031;-68
2022/04/06 01:05:25;;;;;;;3.85;2.50;;;;;;;20.78;36.62;100055.72;5068605;28;20048;-68
2022/04/06 01:07:52;;;;;;;2.78;2.10;;;;;;;20.75;36.58;100059.59;5015330;28;20178;-69
2022/04/06 01:10:18;;;;;;;3.00;2.20;;;;;;;20.78;36.68;100058.38;5068739;28;20043;-69
2022/04/06 01:12:47;;;;;;;3.30;2.25;;;;;;;20.76;36.70;100055.94;5043503;28;20845;-68
2022/04/06 01:15:15;;;;;;;5.13;2.22;;;;;;;20.75;36.66;100050.84;5067063;28;20044;-69
2022/04/06 01:17:41;;;;;;;5.55;2.40;;;;;;;20.78;36.60;100047.78;5041992;28;21228;-68
2022/04/06 01:20:09;;;;;;;3.65;2.20;;;;;;;20.75;36.64;100049.03;5068475;28;20083;-68
2022/04/06 01:22:35;;;;;;;4.72;2.40;;;;;;;20.75;36.74;100045.56;5048111;28;20035;-68
2022/04/06 01:25:02;;;;;;;4.20;2.30;;;;;;;20.77;36.64;100054.09;5032772;28;21682;-69
2022/04/06 01:27:28;;;;;;;4.43;2.67;;;;;;;20.76;36.54;100045.34;5066860;28;20122;-69
2022/04/06 01:29:54;;;;;;;3.83;2.30;;;;;;;20.59;36.63;100009.75;5045347;28;20602;-69
2022/04/06 01:32:32;;;;;;;5.90;2.58;;;;;;;20.72;36.70;100044.13;5068286;28;20044;-68
2022/04/06 01:34:58;;;;;;;5.15;2.25;;;;;;;20.71;36.61;100037.22;5044384;28;20045;-68
2022/04/06 01:37:24;;;;;;;3.60;2.22;;;;;;;20.73;36.59;100047.59;5069712;28;20491;-68
2022/04/06 01:39:50;;;;;;;3.78;2.53;;;;;;;20.69;36.68;100035.81;5044637;28;20045;-68
2022/04/06 01:42:18;;;;;;;4.03;2.22;;;;;;;20.69;36.46;100026.03;5058200;28;20329;-69
2022/04/06 01:44:46;;;;;;;4.00;2.38;;;;;;;20.68;36.66;100028.88;5065665;28;20109;-68
2022/04/06 01:47:15;;;;;;;3.95;2.40;;;;;;;20.70;36.63;100032.94;5042911;28;20201;-68
2022/04/06 01:52:25;;;;;;;5.65;2.70;;;;;;;20.67;36.70;100016.69;5041984;28;20554;-68
2022/04/06 01:55:11;;;;;;;4.35;2.30;;;;;;;20.69;36.50;100015.44;5070984;28;20044;-68
2022/04/06 01:57:38;;;;;;;4.20;2.25;;;;;;;20.71;36.67;100017.88;5030946;28;20130;-68
2022/04/06 02:00:09;;;;;;;5.47;2.88;;;;;;;20.68;36.63;100011.19;5053415;28;20041;-69
2022/04/06 02:02:40;;;;;;;4.85;2.90;;;;;;;20.64;36.61;100002.00;5039987;28;20469;-69
2022/04/06 02:05:06;;;;;;;4.43;2.45;;;;;;;20.68;36.80;100013.81;5049513;28;20036;-68
2022/04/06 02:07:32;;;;;;;6.18;2.55;;;;;;;20.69;36.66;100012.00;5046388;28;20232;-68
2022/04/06 02:10:02;;;;;;;4.75;2.70;;;;;;;20.69;36.60;100010.16;5067184;28;20482;-70
2022/04/06 02:12:29;;;;;;;3.47;2.22;;;;;;;20.67;36.63;100006.91;5031437;28;20060;-68
2022/04/06 02:14:55;;;;;;;5.35;2.70;;;;;;;20.70;36.52;100005.69;5064627;28;20035;-68
2022/04/06 02:17:22;;;;;;;3.42;2.40;;;;;;;20.61;36.63;99998.97;5064874;28;20093;-68
2022/04/06 02:19:48;;;;;;;3.85;2.40;;;;;;;20.64;36.71;99999.34;5029960;28;20294;-68
2022/04/06 02:22:14;;;;;;;3.22;2.30;;;;;;;20.62;36.85;100000.59;5046701;28;20071;-69
2022/04/06 02:24:40;;;;;;;9.60;2.72;;;;;;;20.67;36.60;100000.81;5044665;28;20036;-69
2022/04/06 02:27:07;;;;;;;5.57;2.63;;;;;;;20.63;36.61;99997.72;5051381;28;20055;-68
2022/04/06 02:29:32;;;;;;;6.35;2.28;;;;;;;20.61;36.69;99994.47;5034381;28;20544;-68
2022/04/06 02:31:58;;;;;;;4.55;2.38;;;;;;;20.63;36.56;99987.16;5039958;28;20044;-68
2022/04/06 02:34:23;;;;;;;4.53;3.10;;;;;;;20.62;36.64;99977.59;5052263;28;20040;-68
2022/04/06 02:36:49;;;;;;;5.85;2.40;;;;;;;20.60;36.75;99978.81;5034662;28;20417;-69
2022/04/06 02:39:14;;;;;;;4.07;2.63;;;;;;;20.60;36.56;99986.75;5048456;28;20041;-68
2022/04/06 02:41:40;;;;;;;3.40;2.53;;;;;;;20.61;36.59;99977.78;5043020;28;20082;-68
2022/04/06 02:44:06;;;;;;;5.47;2.67;;;;;;;20.59;36.68;99971.91;5049153;28;20730;-68
2022/04/06 02:46:32;;;;;;;4.15;2.60;;;;;;;20.63;36.63;99983.69;5034876;28;20482;-68
2022/04/06 02:48:58;;;;;;;5.10;2.78;;;;;;;20.59;36.74;99971.91;5052695;28;20051;-68
2022/04/06 02:51:23;;;;;;;6.03;2.45;;;;;;;20.58;36.66;99971.09;5043570;28;20046;-68
2022/04/06 02:53:49;;;;;;;4.28;2.47;;;;;;;20.61;36.59;99975.16;5066755;28;20044;-68
2022/04/06 02:56:15;;;;;;;4.13;2.47;;;;;;;20.61;36.52;99972.50;5044049;28;20032;-68
2022/04/06 02:58:40;;;;;;;3.97;2.40;;;;;;;20.60;36.66;99968.22;5068248;28;20036;-68
2022/04/06 03:01:06;;;;;;;3.58;2.53;;;;;;;20.60;36.57;99963.75;5033932;28;20047;-68
2022/04/06 03:03:32;;;;;;;2.95;2.42;;;;;;;20.56;36.59;99951.97;5061908;28;20498;-68
2022/04/06 03:05:57;;;;;;;4.03;2.50;;;;;;;20.56;36.66;99951.97;5047165;28;20391;-69
2022/04/06 03:08:23;;;;;;;3.67;2.03;;;;;;;20.59;36.57;99951.56;5046854;28;20512;-69
2022/04/06 03:10:48;;;;;;;4.40;2.30;;;;;;;20.56;36.71;99954.63;5063148;28;20068;-68
2022/04/06 03:13:14;;;;;;;4.25;2.47;;;;;;;20.62;36.41;99955.63;5041212;28;20198;-69
2022/04/06 03:15:40;;;;;;;3.65;2.42;;;;;;;20.59;36.52;99959.50;5071332;28;20497;-69
2022/04/06 03:18:05;;;;;;;3.55;2.45;;;;;;;20.57;36.54;99953.59;5031604;28;20055;-68
2022/04/06 03:20:31;;;;;;;5.25;2.60;;;;;;;20.52;36.59;99948.94;5070897;28;20418;-68
2022/04/06 03:22:57;;;;;;;3.85;2.22;;;;;;;20.51;36.70;99951.78;5022421;28;20244;-68
2022/04/06 03:25:23;;;;;;;4.45;2.65;;;;;;;20.47;36.78;99946.09;5056759;28;20452;-69
2022/04/06 03:27:48;;;;;;;4.93;2.30;;;;;;;20.45;36.77;99945.47;5049498;28;20039;-68
2022/04/06 03:30:14;;;;;;;4.68;2.13;;;;;;;20.45;36.74;99942.00;5075577;28;20449;-69
2022/04/06 03:32:41;;;;;;;2.78;2.35;;;;;;;20.41;36.76;99938.97;5045011;28;20525;-68
2022/04/06 03:35:06;;;;;;;5.30;2.50;;;;;;;20.38;36.77;99939.34;5058392;28;20444;-68
2022/04/06 03:37:32;;;;;;;6.15;2.53;;;;;;;20.37;36.80;99939.53;5072497;28;20036;-69
2022/04/06 03:39:58;;;;;;;6.05;2.30;;;;;;;20.33;36.97;99933.88;5045490;28;20634;-68
2022/04/06 03:42:24;;;;;;;5.28;2.60;;;;;;;20.32;36.82;99929.59;5068602;28;20048;-69
2022/04/06 03:44:50;;;;;;;3.90;2.30;;;;;;;20.33;36.90;99935.69;5042990;28;20262;-68
2022/04/06 03:47:16;;;;;;;4.80;2.33;;;;;;;20.31;36.90;99935.91;5069238;28;20043;-68
2022/04/06 03:49:41;;;;;;;3.17;2.22;;;;;;;20.31;37.02;99937.72;5044900;28;20600;-68
2022/04/06 03:52:07;;;;;;;5.47;2.42;;;;;;;20.31;36.95;99932.44;5063297;28;20029;-68
2022/04/06 03:54:33;;;;;;;3.83;2.30;;;;;;;20.30;36.94;99934.28;5071531;28;20529;-68
2022/04/06 03:56:58;;;;;;;4.93;2.63;;;;;;;20.30;36.91;99933.47;5029509;28;20151;-69
2022/04/06 03:59:24;;;;;;;3.50;2.10;;;;;;;20.27;36.98;99929.38;5072388;28;20033;-68
2022/04/06 04:01:49;;;;;;;4.53;2.58;;;;;;;20.29;36.94;99929.16;5047580;28;20101;-69
2022/04/06 04:04:15;;;;;;;3.53;2.10;;;;;;;20.27;37.05;99936.50;5069472;28;20130;-68
2022/04/06 04:06:41;;;;;;;4.80;2.30;;;;;;;20.28;36.90;99928.34;5014112;28;20048;-69
2022/04/06 04:09:07;;;;;;;3.72;2.20;;;;;;;20.26;37.07;99927.75;5054244;28;20056;-69
2022/04/06 04:11:33;;;;;;;2.83;2.20;;;;;;;20.28;36.89;99927.53;5035764;28;20045;-68
2022/04/06 04:13:59;;;;;;;5.20;2.35;;;;;;;20.26;36.97;99930.38;5059824;28;20494;-69
2022/04/06 04:16:25;;;;;;;5.07;2.03;;;;;;;20.25;36.85;99927.94;5057719;28;20063;-68
2022/04/06 04:18:51;;;;;;;4.13;2.60;;;;;;;20.26;36.94;99926.94;5055135;28;20481;-69
2022/04/06 04:21:35;;;;;;;2.95;2.20;;;;;;;20.20;37.02;99916.16;5069325;28;20043;-68
2022/04/06 04:24:02;;;;;;;2.95;2.10;;;;;;;20.22;37.02;99922.06;5055780;28;20048;-68
2022/04/06 04:26:29;;;;;;;5.10;2.33;;;;;;;20.19;36.99;99917.19;5070820;28;20036;-69
2022/04/06 04:28:56;;;;;;;5.15;2.38;;;;;;;20.17;36.98;99910.47;5044753;28;20059;-68
2022/04/06 04:31:23;;;;;;;5.20;2.33;;;;;;;20.13;37.20;99907.44;5077289;28;20040;-69
2022/04/06 04:33:49;;;;;;;4.25;2.28;;;;;;;20.18;36.87;99909.47;5042464;28;20052;-69
2022/04/06 04:36:15;;;;;;;5.88;2.03;;;;;;;20.15;37.01;99905.41;5066407;28;20102;-69
2022/04/06 04:38:42;;;;;;;4.63;2.25;;;;;;;20.14;37.02;99900.31;5045482;28;20171;-68
2022/04/06 04:41:08;;;;;;;5.30;1.98;;;;;;;20.10;37.01;99907.81;5060141;28;20500;-69
2022/04/06 04:43:36;;;;;;;3.33;2.17;;;;;;;20.09;36.90;99898.25;5069888;28;20623;-69
2022/04/06 04:46:06;;;;;;;3.78;2.22;;;;;;;20.06;37.27;99896.03;5047010;28;20555;-68
2022/04/06 04:48:32;;;;;;;5.72;2.42;;;;;;;20.10;37.07;99899.06;5071232;28;20032;-69
2022/04/06 04:50:57;;;;;;;4.57;2.45;;;;;;;20.04;37.10;99898.06;5045787;28;20530;-69
2022/04/06 04:53:23;;;;;;;3.42;2.00;;;;;;;20.05;37.21;99904.16;5055476;28;20052;-69
2022/04/06 04:55:49;;;;;;;3.42;2.40;;;;;;;20.05;37.24;99904.16;5033748;28;20050;-68
2022/04/06 04:58:15;;;;;;;3.95;2.17;;;;;;;20.05;37.20;99888.31;5067656;28;20136;-68
2022/04/06 05:00:40;;;;;;;3.75;2.10;;;;;;;20.06;37.09;99887.28;5026071;28;20285;-68
2022/04/06 05:03:07;;;;;;;4.07;2.30;;;;;;;20.01;37.21;99879.16;5069867;28;20044;-69
2022/04/06 05:05:33;;;;;;;2.92;2.10;;;;;;;19.97;37.06;99870.03;5051110;28;20048;-68
2022/04/06 05:07:59;;;;;;;3.28;2.25;;;;;;;20.02;37.25;99880.78;5064900;28;20055;-68
2022/04/06 05:10:25;;;;;;;5.05;2.28;;;;;;;20.05;37.05;99875.91;5037834;28;20128;-70
2022/04/06 05:12:51;;;;;;;3.75;2.10;;;;;;;20.15;37.11;99880.78;5041143;28;20024;-69
2022/04/06 05:15:17;;;;;;;2.63;1.95;;;;;;;21.00;36.03;99871.03;5065549;28;20041;-69
2022/04/06 05:17:42;;;;;;;3.95;1.92;;;;;;;21.75;34.55;99871.28;5039718;28;20068;-69
2022/04/06 05:20:09;;;;;;;4.45;1.90;;;;;;;22.41;33.53;99873.38;5039140;28;20039;-69
2022/04/06 05:22:35;;;;;;;2.80;1.98;;;;;;;22.86;33.00;99876.59;5042968;28;20046;-69
2022/04/06 05:25:04;;;;;;;2.08;1.70;;;;;;;22.98;32.97;99873.97;5053492;28;20048;-69
2022/04/06 05:27:31;;;;;;;3.00;1.88;;;;;;;22.89;33.05;99882.25;5025011;28;20048;-69
2022/04/06 05:29:57;;;;;;;3.40;1.90;;;;;;;22.73;33.31;99876.72;5065860;28;20028;-69
2022/04/06 05:32:22;;;;;;;2.13;1.85;;;;;;;22.58;33.81;99871.75;5072708;28;20363;-68
2022/04/06 05:34:48;;;;;;;4.50;2.15;;;;;;;22.38;33.94;99861.34;5049313;28;20056;-69
2022/04/06 05:37:13;;;;;;;5.05;2.25;;;;;;;22.37;34.24;99875.66;5068952;28;20105;-69
2022/04/06 05:39:39;;;;;;;5.28;2.35;;;;;;;22.25;34.10;99869.44;5048019;28;20040;-69
2022/04/06 05:42:04;;;;;;;3.20;2.22;;;;;;;22.07;34.32;99846.34;5072443;28;20819;-69
2022/04/06 05:44:30;;;;;;;3.42;2.08;;;;;;;22.13;34.72;99872.00;5032948;28;20047;-69
2022/04/06 05:46:55;;;;;;;4.60;2.13;;;;;;;22.05;34.80;99861.66;5054720;28;20043;-68
2022/04/06 05:49:21;;;;;;;5.45;2.47;;;;;;;21.99;35.12;99871.28;5021005;28;20056;-68
2022/04/06 05:51:48;;;;;;;4.70;2.33;;;;;;;21.81;35.21;99865.91;5069747;28;20118;-68
2022/04/06 05:54:13;;;;;;;4.05;2.22;;;;;;;21.79;35.34;99864.50;5046050;28;20048;-68
2022/04/06 05:56:40;;;;;;;4.65;2.45;;;;;;;21.77;35.14;99870.03;5067260;28;20032;-68
2022/04/06 05:59:06;;;;;;;4.10;1.98;;;;;;;21.63;35.72;99856.06;5037771;28;20047;-68
2022/04/06 06:01:32;;;;;;;3.90;2.03;;;;;;;21.58;35.43;99853.25;5043624;28;20039;-68
2022/04/06 06:03:57;;;;;;;3.35;1.73;;;;;;;21.41;35.77;99866.19;5069138;28;20040;-68
2022/04/06 06:06:23;;;;;;;4.07;1.80;;;;;;;21.29;36.31;99861.78;5041923;28;20091;-68
2022/04/06 06:08:48;;;;;;;5.38;2.78;;;;;;;21.65;35.71;99856.66;5070501;28;20048;-68
2022/04/06 06:11:14;;;;;;;6.32;2.95;;;;;;;22.15;34.90;99869.94;5043270;28;20626;-68
2022/04/06 06:13:40;;;;;;;4.43;1.98;;;;;;;22.61;33.98;99866.81;5068996;28;20472;-68
2022/04/06 06:16:06;;;;;;;4.82;2.40;;;;;;;22.83;33.79;99864.56;5032859;28;20029;-70
2022/04/06 06:18:31;;;;;;;2.22;1.98;;;;;;;22.91;33.64;99858.16;5050040;28;20101;-68
2022/04/06 06:21:00;;;;;;;4.40;2.20;;;;;;;22.78;33.56;99869.69;5041430;28;20074;-69
2022/04/06 06:23:26;;;;;;;3.30;2.22;;;;;;;22.67;33.99;99867.78;5069625;28;20040;-68
2022/04/06 06:25:52;;;;;;;5.57;1.92;;;;;;;22.61;34.17;99861.50;5042911;28;20454;-70
2022/04/06 06:28:18;;;;;;;5.65;2.30;;;;;;;22.55;34.12;99865.06;5067935;28;20035;-70
2022/04/06 06:30:43;;;;;;;2.92;2.03;;;;;;;22.50;34.63;99870.22;5039381;28;20036;-70
2022/04/06 06:33:09;;;;;;;3.00;2.17;;;;;;;22.42;34.50;99869.69;5057273;28;20036;-68
2022/04/06 06:35:34;;;;;;;2.30;1.92;;;;;;;22.29;34.51;99868.00;5066326;28;20283;-70
2022/04/06 06:38:00;;;;;;;4.30;2.00;;;;;;;22.16;34.75;99871.56;5042795;28;20028;-70
2022/04/06 06:40:27;;;;;;;3.03;1.85;;;;;;;22.08;35.14;99869.19;5071247;28;20055;-70
2022/04/06 06:42:53;;;;;;;3.30;1.90;;;;;;;21.96;35.50;99855.00;5025785;28;20055;-69
2022/04/06 06:45:19;;;;;;;3.33;2.00;;;;;;;21.75;35.58;99847.44;5071811;28;20064;-70
2022/04/06 06:47:45;;;;;;;3.83;2.05;;;;;;;21.64;35.96;99864.81;5033447;28;20120;-69
2022/04/06 06:50:13;;;;;;;2.38;1.77;;;;;;;21.43;36.06;99844.78;5072503;28;20094;-69
2022/04/06 06:52:39;;;;;;;3.72;1.90;;;;;;;21.31;36.40;99852.59;5047561;28;20031;-69
2022/04/06 06:55:07;;;;;;;3.80;1.92;;;;;;;21.23;36.68;99847.53;5075901;28;20939;-69
2022/04/06 06:57:34;;;;;;;3.45;1.90;;;;;;;21.27;36.63;99851.41;5050045;28;20040;-69
2022/04/06 07:00:00;;;;;;;5.22;2.42;;;;;;;21.18;36.94;99846.53;5069249;28;20051;-69
2022/04/06 07:02:26;;;;;;;2.90;1.80;;;;;;;21.19;36.80;99848.16;5063358;28;20024;-70
2022/04/06 07:04:51;;;;;;;4.13;2.28;;;;;;;21.14;36.80;99848.78;5033059;28;20517;-70
2022/04/06 07:07:17;;;;;;;4.45;1.90;;;;;;;21.07;36.84;99845.38;5074038;28;20040;-70
2022/04/06 07:09:43;;;;;;;6.38;2.60;;;;;;;21.05;36.86;99845.59;5029717;28;20168;-69
2022/04/06 07:12:10;;;;;;;3.05;1.75;;;;;;;21.01;36.88;99844.38;5052826;28;20124;-70
2022/04/06 07:14:36;;;;;;;4.20;1.88;;;;;;;21.01;36.72;99841.75;5048167;28;20048;-70
2022/04/06 07:17:02;;;;;;;3.53;1.90;;;;;;;21.09;36.71;99843.31;5067200;28;20918;-70
2022/04/06 07:19:28;;;;;;;6.78;2.30;;;;;;;21.03;36.73;99849.47;5059564;28;20124;-70
2022/04/06 07:21:53;;;;;;;3.20;2.05;;;;;;;21.03;36.77;99839.69;5050126;28;20032;-70
2022/04/06 07:24:19;;;;;;;5.35;2.20;;;;;;;21.06;37.29;99841.09;5069566;28;20387;-72
2022/04/06 07:26:44;;;;;;;3.00;2.00;;;;;;;20.98;37.35;99838.69;5047826;28;20085;-71
2022/04/06 07:29:11;;;;;;;2.83;1.52;;;;;;;21.30;36.81;99834.28;5074826;28;20036;-71
2022/04/06 07:31:43;;;;;;;5.47;2.13;;;;;;;21.35;36.38;99831.78;5046004;28;20115;-71
2022/04/06 07:34:09;;;;;;;2.78;1.80;;;;;;;21.41;36.31;99831.75;5073477;28;20039;-71
2022/04/06 07:36:36;;;;;;;4.97;1.90;;;;;;;21.77;35.78;99826.81;5003109;28;20043;-71
2022/04/06 07:39:03;;;;;;;3.75;1.98;;;;;;;21.91;35.64;99831.00;5071963;28;20043;-71
2022/04/06 07:41:30;;;;;;;2.22;1.70;;;;;;;22.05;35.08;99821.91;5056932;28;20043;-72
2022/04/06 07:43:56;;;;;;;3.20;1.65;;;;;;;22.21;34.84;99828.47;5063207;28;20047;-71
2022/04/06 07:46:21;;;;;;;3.17;1.70;;;;;;;22.33;34.82;99823.28;5067232;28;20036;-72
2022/04/06 07:48:47;;;;;;;2.25;1.75;;;;;;;22.25;34.98;99813.75;5048415;28;20040;-71
2022/04/06 07:51:13;;;;;;;7.40;1.98;;;;;;;22.21;35.07;99818.69;5069123;28;20154;-72
2022/04/06 07:53:38;;;;;;;4.45;1.92;;;;;;;22.11;35.16;99823.69;5036619;28;21781;-71
2022/04/06 07:56:05;;;;;;;3.15;1.70;;;;;;;21.99;35.39;99815.59;5053028;28;20255;-71
2022/04/06 07:58:30;;;;;;;3.60;1.75;;;;;;;21.87;35.49;99821.81;5045115;28;20041;-71
2022/04/06 08:00:56;;;;;;;4.13;1.95;;;;;;;21.81;35.69;99817.41;5061410;28;20097;-71
2022/04/06 08:03:21;;;;;;;2.95;1.50;;;;;;;21.63;35.98;99812.84;5048750;28;20044;-71
2022/04/06 08:05:47;;;;;;;3.75;1.92;;;;;;;21.50;36.11;99805.00;5070381;28;20047;-71
2022/04/06 08:08:13;;;;;;;4.50;1.70;;;;;;;21.67;35.98;99806.91;5038858;28;20051;-72
2022/04/06 08:10:38;;;;;;;3.03;1.75;;;;;;;21.64;35.89;99796.75;5073205;28;20052;-72
2022/04/06 08:13:04;;;;;;;2.60;1.70;;;;;;;21.60;35.91;99810.66;5072664;28;20040;-71
2022/04/06 08:15:30;;;;;;;2.97;1.80;;;;;;;21.45;36.33;99810.94;5030863;28;20160;-71
2022/04/06 08:17:55;;;;;;;4.00;1.80;;;;;;;21.45;36.15;99808.31;5067231;28;20502;-71
2022/04/06 08:20:21;;;;;;;2.63;1.42;;;;;;;21.74;35.72;99808.72;5043882;28;20082;-72
2022/04/06 08:22:48;;;;;;;3.80;2.20;;;;;;;22.06;35.26;99818.22;5072387;28;20051;-70
2022/04/06 08:25:14;;;;;;;5.93;1.92;;;;;;;22.40;34.82;99800.13;5033083;28;20040;-71
2022/04/06 08:27:40;;;;;;;2.65;1.58;;;;;;;22.47;34.43;99804.34;5067455;28;20560;-72
2022/04/06 08:30:11;;;;;;;3.67;1.88;;;;;;;22.41;34.79;99791.94;5053125;28;20033;-71
2022/04/06 08:32:37;;;;;;;2.20;1.60;;;;;;;22.28;34.73;99790.28;5069116;28;20485;-71
2022/04/06 08:35:04;;;;;;;3.80;1.60;;;;;;;22.19;35.18;99794.22;5045559;28;20070;-71
2022/04/06 08:37:30;;;;;;;2.55;1.63;;;;;;;22.09;35.00;99788.63;5069964;28;20028;-71
2022/04/06 08:39:55;;;;;;;3.22;1.67;;;;;;;22.03;35.39;99792.13;5035230;28;20929;-71
2022/04/06 08:42:21;;;;;;;2.60;1.70;;;;;;;21.97;35.26;99793.00;5040967;28;20703;-71
2022/04/06 08:44:47;;;;;;;3.05;1.70;;;;;;;21.76;35.87;99794.22;5068739;28;20042;-71
2022/04/06 08:47:13;;;;;;;3.65;1.73;;;;;;;21.68;35.91;99779.38;5040514;28;20048;-72
2022/04/06 08:49:41;;;;;;;4.85;2.38;;;;;;;21.75;35.94;99789.13;5068358;28;20040;-70
2022/04/06 08:52:09;;;;;;;3.35;1.83;;;;;;;22.18;35.44;99784.66;4986705;28;20543;-73
2022/04/06 08:54:35;;;;;;;2.42;1.52;;;;;;;22.26;35.46;99792.34;5068767;28;20047;-69
2022/04/06 08:57:02;;;;;;;3.75;1.65;;;;;;;22.39;35.80;99774.63;5012789;28;20040;-68
2022/04/06 08:59:28;;;;;;;5.95;1.80;;;;;;;22.46;35.79;99781.50;5056956;28;20059;-72
2022/04/06 09:01:53;;;;;;;2.30;1.63;;;;;;;22.52;35.34;99766.53;5023069;28;25848;-67
2022/04/06 09:04:20;;;;;;;3.47;1.55;;;;;;;22.42;35.79;99769.69;5056185;28;20032;-67
2022/04/06 09:06:47;;;;;;;3.67;1.70;;;;;;;22.57;35.56;99778.09;4995065;28;20048;-69
2022/04/06 09:09:24;;;;;;;3.22;1.80;;;;;;;22.52;35.58;99759.38;5069865;28;20032;-68
2022/04/06 09:11:50;;;;;;;3.20;1.73;;;;;;;22.55;35.72;99766.06;5031037;28;20898;-67
2022/04/06 09:14:28;;;;;;;4.55;1.80;;;;;;;22.57;35.85;99762.16;5044197;28;20044;-70
2022/04/06 09:17:17;;;;;;;5.15;1.67;;;;;;;22.57;35.61;99764.81;5070506;28;20052;-71
2022/04/06 09:19:47;;;;;;;6.53;2.15;;;;;;;22.59;35.74;99759.28;5018205;28;20051;-71
2022/04/06 09:22:12;;;;;;;3.38;1.70;;;;;;;22.62;35.48;99753.53;5047962;28;20540;-71
2022/04/06 09:24:38;;;;;;;7.20;2.08;;;;;;;22.64;35.81;99746.19;5030975;28;20406;-71
2022/04/06 09:27:05;;;;;;;3.65;1.90;;;;;;;22.50;35.68;99732.25;5074925;28;20104;-71
2022/04/06 09:29:31;;;;;;;5.05;2.30;;;;;;;22.59;35.78;99753.97;5009854;28;20377;-69
2022/04/06 09:32:06;;;;;;;4.15;1.98;;;;;;;22.45;36.15;99753.34;5072310;28;20036;-73
2022/04/06 09:34:33;;;;;;;5.65;2.30;;;;;;;22.55;36.12;99761.59;5024987;28;20512;-68
2022/04/06 09:36:58;;;;;;;4.25;1.52;;;;;;;22.71;35.64;99746.88;5037927;28;20352;-67
2022/04/06 09:39:43;;;;;;;5.15;1.90;;;;;;;22.70;35.61;99755.88;5049721;28;20122;-66
2022/04/06 09:42:10;;;;;;;2.83;1.52;;;;;;;22.66;36.00;99762.69;5070133;28;20135;-67
2022/04/06 09:47:40;;;;;;;5.60;1.88;;;;;;;22.73;35.89;99736.84;5073109;28;20036;-68
2022/04/06 09:50:19;;;;;;;4.47;2.13;;;;;;;22.81;35.75;99747.19;5046704;28;20093;-67
2022/04/06 09:52:46;;;;;;;4.37;1.80;;;;;;;22.80;36.04;99750.88;5046481;28;20324;-67
2022/04/06 09:55:14;;;;;;;3.08;1.67;;;;;;;22.84;35.71;99746.75;5024235;28;20483;-67
2022/04/06 09:57:50;;;;;;;3.83;1.88;;;;;;;22.68;36.25;99742.03;5049093;28;20039;-73
2022/04/06 10:00:20;;;;;;;4.72;1.98;;;;;;;22.65;35.85;99731.88;5019101;28;20093;-69
2022/04/06 10:03:08;;;;;;;5.05;2.22;;;;;;;22.59;35.78;99738.88;5047184;28;20097;-66
2022/04/06 10:05:37;;;;;;;4.88;1.73;;;;;;;22.55;35.69;99726.28;5008285;28;20139;-66
2022/04/06 10:08:04;;;;;;;3.67;1.70;;;;;;;22.49;35.80;99732.50;5038629;28;20118;-67
2022/04/06 10:10:31;;;;;;;5.30;2.25;;;;;;;22.42;35.87;99721.13;5044527;28;20798;-67
2022/04/06 10:12:57;;;;;;;5.93;2.13;;;;;;;22.43;36.05;99730.72;5013320;28;20046;-68
2022/04/06 10:15:26;;;;;;;4.63;2.05;;;;;;;22.38;35.87;99727.94;5062120;28;20041;-68
2022/04/06 10:17:52;;;;;;;4.95;1.85;;;;;;;22.37;35.78;99728.97;4994049;28;20155;-68
2022/04/06 10:20:17;;;;;;;6.88;2.20;;;;;;;22.29;36.29;99735.38;5064960;28;20130;-70
2022/04/06 10:23:31;;;;;;;6.68;1.90;;;;;;;22.26;36.56;99727.84;5023655;28;20421;-71
2022/04/06 10:26:11;;;;;;;4.82;2.33;;;;;;;22.26;36.34;99723.38;5027175;28;20040;-73
2022/04/06 10:28:38;;;;;;;4.13;1.85;;;;;;;22.24;36.29;99725.41;5031022;28;20516;-73
2022/04/06 10:31:22;;;;;;;5.38;2.20;;;;;;;22.21;36.15;99728.53;5069221;28;20044;-72
2022/04/06 10:33:51;;;;;;;4.32;1.95;;;;;;;22.20;36.39;99716.28;5038489;28;20044;-73
2022/04/06 10:36:20;;;;;;;4.82;1.67;;;;;;;22.16;36.18;99712.47;5049047;28;20825;-72
2022/04/06 10:39:04;;;;;;;4.57;2.10;;;;;;;22.14;36.44;99713.72;5025459;28;20123;-73
2022/04/06 10:41:30;;;;;;;6.50;2.25;;;;;;;22.13;36.15;99712.13;5068206;28;21750;-71
2022/04/06 10:43:56;;;;;;;2.78;1.67;;;;;;;22.11;36.13;99708.88;5007249;28;20117;-73
2022/04/06 10:46:38;;;;;;;3.10;1.63;;;;;;;22.10;36.09;99707.25;5071541;28;20481;-70
2022/04/06 10:49:07;;;;;;;4.05;1.95;;;;;;;22.07;36.23;99711.13;4999234;28;20508;-71
2022/04/06 10:51:37;;;;;;;3.78;1.85;;;;;;;22.06;36.39;99720.13;5074666;28;20040;-72
2022/04/06 10:54:12;;;;;;;6.22;1.95;;;;;;;22.05;36.40;99699.13;5019063;28;20596;-73
2022/04/06 10:56:50;;;;;;;5.30;2.13;;;;;;;22.06;36.18;99701.56;5064427;28;20240;-71
2022/04/06 10:59:23;;;;;;;7.38;2.13;;;;;;;22.00;36.65;99697.94;5030746;28;20131;-71
2022/04/06 11:02:09;;;;;;;6.38;2.22;;;;;;;22.01;36.47;99696.09;5071576;28;20033;-70
2022/04/06 11:04:39;;;;;;;3.63;1.85;;;;;;;22.02;36.32;99684.47;5028358;28;20070;-70
2022/04/06 11:07:06;;;;;;;5.60;1.88;;;;;;;21.95;36.48;99699.63;5050423;28;20051;-71
2022/04/06 11:12:56;;;;;;;7.93;2.20;;;;;;;21.94;36.46;99685.56;5048197;28;20083;-70
2022/04/06 11:15:32;;;;;;;6.95;2.30;;;;;;;21.94;36.33;99684.78;5036041;28;20421;-71
2022/04/06 11:17:58;;;;;;;10.43;2.30;;;;;;;22.02;36.46;99677.31;5039115;28;20095;-70
2022/04/06 11:20:32;;;;;;;5.80;2.13;;;;;;;21.97;36.31;99679.81;5036725;28;21089;-70
2022/04/06 11:22:58;;;;;;;5.18;2.10;;;;;;;21.95;36.39;99676.59;5028579;28;20036;-71
2022/04/06 11:25:27;;;;;;;5.65;2.28;;;;;;;21.94;36.39;99680.28;5070025;28;20075;-71
2022/04/06 11:27:55;;;;;;;5.80;2.10;;;;;;;21.92;36.25;99678.88;5042696;28;20036;-70
2022/04/06 11:30:23;;;;;;;6.53;2.45;;;;;;;21.84;36.49;99682.63;5067664;28;20837;-73
2022/04/06 11:32:59;;;;;;;4.95;2.10;;;;;;;21.86;36.48;99677.91;5031903;28;20044;-72
2022/04/06 11:35:34;;;;;;;5.03;2.50;;;;;;;21.84;36.52;99684.47;5070482;28;20244;-72
2022/04/06 11:38:00;;;;;;;6.50;2.17;;;;;;;21.91;36.52;99685.22;5024025;28;20036;-72
2022/04/06 11:40:27;;;;;;;5.20;2.08;;;;;;;21.90;36.72;99680.91;5056728;28;20039;-70
2022/04/06 11:42:55;;;;;;;7.32;2.38;;;;;;;21.97;36.87;99671.06;5052082;28;20115;-69